sensor_id;sensor_type;location;lat;lon;timestamp;P1;durP1;ratioP1;P2;durP2;ratioP2
66663;SDS011;59683;51.428;-1.994;2023-12-22T00:01:54;12.73;;;1.60;;
66663;SDS011;59683;51.428;-1.994;2023-12-22T00:04:19;10.00;;;1.60;;
66663;SDS011;59683;51.428;-1.994;2023-12-22T00:06:44;12.10;;;2.50;;
66663;SDS011;59683;51.428;-1.994;2023-12-22T00:09:13;7.97;;;1.53;;
66663;SDS011;59683;51.428;-1.994;2023-12-22T00:11:38;11.70;;;2.57;;
66663;SDS011;59683;51.428;-1.994;2023-12-22T00:14:03;12.07;;;1.87;;
66663;SDS011;59683;51.428;-1.994;2023-12-22T00:16:29;11.03;;;1.87;;
66663;SDS011;59683;51.428;-1.994;2023-12-22T00:18:54;9.47;;;2.67;;
66663;SDS011;59683;51.428;-1.994;2023-12-22T00:21:21;8.80;;;1.80;;
66663;SDS011;59683;51.428;-1.994;2023-12-22T00:23:46;8.93;;;2.73;;
66663;SDS011;59683;51.428;-1.994;2023-12-22T00:26:11;10.00;;;2.33;;
66663;SDS011;59683;51.428;-1.994;2023-12-22T00:28:37;9.23;;;1.83;;
66663;SDS011;59683;51.428;-1.994;2023-12-22T00:31:02;5.23;;;1.57;;
66663;SDS011;59683;51.428;-1.994;2023-12-22T00:33:28;6.30;;;1.67;;
66663;SDS011;59683;51.428;-1.994;2023-12-22T00:35:53;7.87;;;1.80;;
66663;SDS011;59683;51.428;-1.994;2023-12-22T00:38:19;9.10;;;1.40;;
66663;SDS011;59683;51.428;-1.994;2023-12-22T00:40:44;7.53;;;1.87;;
66663;SDS011;59683;51.428;-1.994;2023-12-22T00:43:09;5.20;;;1.30;;
66663;SDS011;59683;51.428;-1.994;2023-12-22T00:45:35;7.33;;;1.57;;
66663;SDS011;59683;51.428;-1.994;2023-12-22T00:48:00;8.93;;;2.13;;
66663;SDS011;59683;51.428;-1.994;2023-12-22T00:50:25;8.90;;;1.37;;
66663;SDS011;59683;51.428;-1.994;2023-12-22T00:52:51;8.40;;;1.73;;
66663;SDS011;59683;51.428;-1.994;2023-12-22T00:55:16;6.20;;;1.30;;
66663;SDS011;59683;51.428;-1.994;2023-12-22T00:57:42;3.53;;;1.50;;
66663;SDS011;59683;51.428;-1.994;2023-12-22T01:00:08;8.30;;;1.90;;
66663;SDS011;59683;51.428;-1.994;2023-12-22T01:02:37;5.93;;;1.20;;
66663;SDS011;59683;51.428;-1.994;2023-12-22T01:05:03;6.43;;;1.57;;
66663;SDS011;59683;51.428;-1.994;2023-12-22T01:07:29;8.23;;;1.30;;
66663;SDS011;59683;51.428;-1.994;2023-12-22T01:09:54;6.17;;;1.70;;
66663;SDS011;59683;51.428;-1.994;2023-12-22T01:12:19;7.30;;;1.43;;
66663;SDS011;59683;51.428;-1.994;2023-12-22T01:14:45;5.97;;;2.00;;
66663;SDS011;59683;51.428;-1.994;2023-12-22T01:17:10;8.70;;;1.20;;
66663;SDS011;59683;51.428;-1.994;2023-12-22T01:19:36;4.57;;;1.37;;
66663;SDS011;59683;51.428;-1.994;2023-12-22T01:22:01;4.73;;;1.00;;
66663;SDS011;59683;51.428;-1.994;2023-12-22T01:24:27;6.47;;;1.10;;
66663;SDS011;59683;51.428;-1.994;2023-12-22T01:26:52;6.77;;;1.73;;
66663;SDS011;59683;51.428;-1.994;2023-12-22T01:29:18;5.10;;;0.87;;
66663;SDS011;59683;51.428;-1.994;2023-12-22T01:31:43;5.10;;;0.90;;
66663;SDS011;59683;51.428;-1.994;2023-12-22T01:34:09;5.83;;;1.37;;
66663;SDS011;59683;51.428;-1.994;2023-12-22T01:36:34;7.03;;;1.30;;
66663;SDS011;59683;51.428;-1.994;2023-12-22T01:38:59;4.63;;;1.47;;
66663;SDS011;59683;51.428;-1.994;2023-12-22T01:41:25;9.63;;;3.10;;
66663;SDS011;59683;51.428;-1.994;2023-12-22T01:43:50;5.20;;;1.43;;
66663;SDS011;59683;51.428;-1.994;2023-12-22T01:46:16;6.90;;;1.43;;
66663;SDS011;59683;51.428;-1.994;2023-12-22T01:48:42;7.60;;;1.60;;
66663;SDS011;59683;51.428;-1.994;2023-12-22T01:51:07;5.97;;;1.40;;
66663;SDS011;59683;51.428;-1.994;2023-12-22T01:53:33;14.13;;;2.07;;
66663;SDS011;59683;51.428;-1.994;2023-12-22T01:55:59;8.10;;;1.10;;
66663;SDS011;59683;51.428;-1.994;2023-12-22T01:58:27;6.63;;;1.10;;
66663;SDS011;59683;51.428;-1.994;2023-12-22T02:00:55;6.60;;;1.30;;
66663;SDS011;59683;51.428;-1.994;2023-12-22T02:03:21;4.43;;;1.00;;
66663;SDS011;59683;51.428;-1.994;2023-12-22T02:05:47;2.47;;;0.93;;
66663;SDS011;59683;51.428;-1.994;2023-12-22T02:08:13;4.37;;;0.93;;
66663;SDS011;59683;51.428;-1.994;2023-12-22T02:10:42;6.25;;;1.00;;
66663;SDS011;59683;51.428;-1.994;2023-12-22T02:13:08;8.50;;;1.10;;
66663;SDS011;59683;51.428;-1.994;2023-12-22T02:15:34;6.20;;;1.27;;
66663;SDS011;59683;51.428;-1.994;2023-12-22T02:20:37;3.70;;;1.13;;
66663;SDS011;59683;51.428;-1.994;2023-12-22T02:23:03;6.60;;;1.20;;
66663;SDS011;59683;51.428;-1.994;2023-12-22T02:25:29;7.17;;;1.30;;
66663;SDS011;59683;51.428;-1.994;2023-12-22T02:27:57;10.00;;;1.80;;
66663;SDS011;59683;51.428;-1.994;2023-12-22T02:30:31;8.57;;;1.73;;
66663;SDS011;59683;51.428;-1.994;2023-12-22T02:32:59;11.13;;;2.33;;
66663;SDS011;59683;51.428;-1.994;2023-12-22T02:35:28;8.10;;;1.63;;
66663;SDS011;59683;51.428;-1.994;2023-12-22T02:37:58;11.80;;;1.87;;
66663;SDS011;59683;51.428;-1.994;2023-12-22T02:40:25;6.20;;;1.92;;
66663;SDS011;59683;51.428;-1.994;2023-12-22T02:42:52;7.43;;;1.73;;
66663;SDS011;59683;51.428;-1.994;2023-12-22T02:45:18;8.07;;;1.73;;
66663;SDS011;59683;51.428;-1.994;2023-12-22T02:47:45;11.43;;;1.73;;
66663;SDS011;59683;51.428;-1.994;2023-12-22T02:50:11;4.80;;;1.37;;
66663;SDS011;59683;51.428;-1.994;2023-12-22T02:52:38;7.90;;;1.87;;
66663;SDS011;59683;51.428;-1.994;2023-12-22T02:55:04;7.97;;;1.30;;
66663;SDS011;59683;51.428;-1.994;2023-12-22T02:57:29;4.87;;;1.40;;
66663;SDS011;59683;51.428;-1.994;2023-12-22T02:59:55;4.80;;;1.20;;
66663;SDS011;59683;51.428;-1.994;2023-12-22T03:02:21;7.47;;;1.87;;
66663;SDS011;59683;51.428;-1.994;2023-12-22T03:04:46;4.63;;;1.00;;
66663;SDS011;59683;51.428;-1.994;2023-12-22T03:07:12;4.73;;;0.90;;
66663;SDS011;59683;51.428;-1.994;2023-12-22T03:09:38;5.80;;;1.50;;
66663;SDS011;59683;51.428;-1.994;2023-12-22T03:12:04;2.83;;;0.90;;
66663;SDS011;59683;51.428;-1.994;2023-12-22T03:14:31;4.07;;;1.13;;
66663;SDS011;59683;51.428;-1.994;2023-12-22T03:16:58;5.67;;;1.97;;
66663;SDS011;59683;51.428;-1.994;2023-12-22T03:19:24;5.80;;;1.07;;
66663;SDS011;59683;51.428;-1.994;2023-12-22T03:21:50;6.70;;;1.20;;
66663;SDS011;59683;51.428;-1.994;2023-12-22T03:24:15;6.10;;;1.40;;
66663;SDS011;59683;51.428;-1.994;2023-12-22T03:26:41;6.63;;;1.03;;
66663;SDS011;59683;51.428;-1.994;2023-12-22T03:29:06;7.50;;;1.70;;
66663;SDS011;59683;51.428;-1.994;2023-12-22T03:31:31;10.07;;;2.27;;
66663;SDS011;59683;51.428;-1.994;2023-12-22T03:33:57;7.97;;;1.60;;
66663;SDS011;59683;51.428;-1.994;2023-12-22T03:36:22;6.10;;;1.30;;
66663;SDS011;59683;51.428;-1.994;2023-12-22T03:38:48;9.20;;;2.00;;
66663;SDS011;59683;51.428;-1.994;2023-12-22T03:41:13;3.93;;;1.20;;
66663;SDS011;59683;51.428;-1.994;2023-12-22T03:43:38;2.87;;;1.20;;
66663;SDS011;59683;51.428;-1.994;2023-12-22T03:46:04;10.63;;;1.47;;
66663;SDS011;59683;51.428;-1.994;2023-12-22T03:48:29;7.93;;;1.00;;
66663;SDS011;59683;51.428;-1.994;2023-12-22T03:50:55;7.80;;;1.53;;
66663;SDS011;59683;51.428;-1.994;2023-12-22T03:53:20;6.53;;;1.53;;
66663;SDS011;59683;51.428;-1.994;2023-12-22T03:55:45;3.83;;;0.90;;
66663;SDS011;59683;51.428;-1.994;2023-12-22T03:58:11;5.73;;;1.23;;
66663;SDS011;59683;51.428;-1.994;2023-12-22T04:00:36;6.67;;;1.03;;
66663;SDS011;59683;51.428;-1.994;2023-12-22T04:03:01;5.70;;;1.17;;
66663;SDS011;59683;51.428;-1.994;2023-12-22T04:05:27;7.17;;;1.03;;
66663;SDS011;59683;51.428;-1.994;2023-12-22T04:07:53;4.80;;;1.30;;
66663;SDS011;59683;51.428;-1.994;2023-12-22T04:10:18;6.43;;;0.97;;
66663;SDS011;59683;51.428;-1.994;2023-12-22T04:12:44;3.77;;;0.80;;
66663;SDS011;59683;51.428;-1.994;2023-12-22T04:15:09;5.80;;;0.67;;
66663;SDS011;59683;51.428;-1.994;2023-12-22T04:17:34;4.87;;;0.77;;
66663;SDS011;59683;51.428;-1.994;2023-12-22T04:20:00;4.13;;;0.80;;
66663;SDS011;59683;51.428;-1.994;2023-12-22T04:22:25;3.30;;;0.90;;
66663;SDS011;59683;51.428;-1.994;2023-12-22T04:24:51;5.83;;;1.30;;
66663;SDS011;59683;51.428;-1.994;2023-12-22T04:27:16;4.10;;;0.83;;
66663;SDS011;59683;51.428;-1.994;2023-12-22T04:29:41;3.53;;;1.03;;
66663;SDS011;59683;51.428;-1.994;2023-12-22T04:32:07;4.33;;;0.80;;
66663;SDS011;59683;51.428;-1.994;2023-12-22T04:34:32;5.57;;;1.40;;
66663;SDS011;59683;51.428;-1.994;2023-12-22T04:36:57;4.90;;;1.03;;
66663;SDS011;59683;51.428;-1.994;2023-12-22T04:39:23;2.47;;;0.50;;
66663;SDS011;59683;51.428;-1.994;2023-12-22T04:41:48;2.07;;;0.43;;
66663;SDS011;59683;51.428;-1.994;2023-12-22T04:44:14;4.73;;;0.50;;
66663;SDS011;59683;51.428;-1.994;2023-12-22T04:46:39;1.23;;;0.40;;
66663;SDS011;59683;51.428;-1.994;2023-12-22T04:49:04;5.73;;;0.70;;
66663;SDS011;59683;51.428;-1.994;2023-12-22T04:51:30;3.10;;;0.50;;
66663;SDS011;59683;51.428;-1.994;2023-12-22T04:53:55;1.87;;;0.50;;
66663;SDS011;59683;51.428;-1.994;2023-12-22T04:56:20;5.73;;;1.63;;
66663;SDS011;59683;51.428;-1.994;2023-12-22T04:58:46;1.73;;;0.60;;
66663;SDS011;59683;51.428;-1.994;2023-12-22T05:01:12;3.00;;;0.50;;
66663;SDS011;59683;51.428;-1.994;2023-12-22T05:03:37;0.83;;;0.40;;
66663;SDS011;59683;51.428;-1.994;2023-12-22T05:06:02;3.57;;;0.80;;
66663;SDS011;59683;51.428;-1.994;2023-12-22T05:08:29;3.97;;;0.57;;
66663;SDS011;59683;51.428;-1.994;2023-12-22T05:10:54;3.57;;;0.50;;
66663;SDS011;59683;51.428;-1.994;2023-12-22T05:13:19;1.87;;;0.40;;
66663;SDS011;59683;51.428;-1.994;2023-12-22T05:15:45;2.27;;;0.40;;
66663;SDS011;59683;51.428;-1.994;2023-12-22T05:18:10;5.10;;;0.47;;
66663;SDS011;59683;51.428;-1.994;2023-12-22T05:20:36;1.57;;;0.40;;
66663;SDS011;59683;51.428;-1.994;2023-12-22T05:23:01;3.20;;;0.20;;
66663;SDS011;59683;51.428;-1.994;2023-12-22T05:25:27;3.07;;;0.40;;
66663;SDS011;59683;51.428;-1.994;2023-12-22T05:27:52;1.33;;;0.37;;
66663;SDS011;59683;51.428;-1.994;2023-12-22T05:30:17;0.90;;;0.33;;
66663;SDS011;59683;51.428;-1.994;2023-12-22T05:32:43;2.67;;;0.40;;
66663;SDS011;59683;51.428;-1.994;2023-12-22T05:35:09;4.70;;;0.50;;
66663;SDS011;59683;51.428;-1.994;2023-12-22T05:37:35;3.57;;;0.60;;
66663;SDS011;59683;51.428;-1.994;2023-12-22T05:40:01;3.03;;;0.50;;
66663;SDS011;59683;51.428;-1.994;2023-12-22T05:42:26;1.50;;;0.40;;
66663;SDS011;59683;51.428;-1.994;2023-12-22T05:44:52;9.10;;;2.77;;
66663;SDS011;59683;51.428;-1.994;2023-12-22T05:47:17;4.03;;;0.60;;
66663;SDS011;59683;51.428;-1.994;2023-12-22T05:49:43;3.60;;;0.60;;
66663;SDS011;59683;51.428;-1.994;2023-12-22T05:52:08;5.63;;;0.70;;
66663;SDS011;59683;51.428;-1.994;2023-12-22T05:54:34;3.10;;;0.40;;
66663;SDS011;59683;51.428;-1.994;2023-12-22T05:57:00;3.33;;;0.60;;
66663;SDS011;59683;51.428;-1.994;2023-12-22T05:59:26;6.40;;;0.57;;
66663;SDS011;59683;51.428;-1.994;2023-12-22T06:01:53;2.63;;;0.73;;
66663;SDS011;59683;51.428;-1.994;2023-12-22T06:04:19;2.23;;;0.50;;
66663;SDS011;59683;51.428;-1.994;2023-12-22T06:06:44;4.03;;;0.63;;
66663;SDS011;59683;51.428;-1.994;2023-12-22T06:09:10;7.90;;;2.30;;
66663;SDS011;59683;51.428;-1.994;2023-12-22T06:11:37;7.40;;;1.67;;
66663;SDS011;59683;51.428;-1.994;2023-12-22T06:14:04;5.82;;;1.20;;
66663;SDS011;59683;51.428;-1.994;2023-12-22T06:16:30;9.63;;;1.97;;
66663;SDS011;59683;51.428;-1.994;2023-12-22T06:18:56;2.67;;;0.83;;
66663;SDS011;59683;51.428;-1.994;2023-12-22T06:21:21;3.20;;;0.60;;
66663;SDS011;59683;51.428;-1.994;2023-12-22T06:23:47;4.23;;;0.83;;
66663;SDS011;59683;51.428;-1.994;2023-12-22T06:26:12;5.00;;;1.13;;
66663;SDS011;59683;51.428;-1.994;2023-12-22T06:28:38;4.90;;;0.70;;
66663;SDS011;59683;51.428;-1.994;2023-12-22T06:31:05;5.93;;;0.63;;
66663;SDS011;59683;51.428;-1.994;2023-12-22T06:33:31;4.37;;;0.77;;
66663;SDS011;59683;51.428;-1.994;2023-12-22T06:35:56;9.53;;;1.10;;
66663;SDS011;59683;51.428;-1.994;2023-12-22T06:38:22;6.60;;;0.70;;
66663;SDS011;59683;51.428;-1.994;2023-12-22T06:40:47;4.93;;;0.70;;
66663;SDS011;59683;51.428;-1.994;2023-12-22T06:43:13;6.80;;;1.17;;
66663;SDS011;59683;51.428;-1.994;2023-12-22T06:45:39;5.67;;;0.80;;
66663;SDS011;59683;51.428;-1.994;2023-12-22T06:48:05;4.83;;;0.70;;
66663;SDS011;59683;51.428;-1.994;2023-12-22T06:50:31;3.07;;;1.10;;
66663;SDS011;59683;51.428;-1.994;2023-12-22T06:52:57;6.30;;;0.80;;
66663;SDS011;59683;51.428;-1.994;2023-12-22T06:55:22;5.47;;;0.50;;
66663;SDS011;59683;51.428;-1.994;2023-12-22T06:57:48;4.60;;;0.67;;
66663;SDS011;59683;51.428;-1.994;2023-12-22T07:00:14;5.27;;;1.10;;
66663;SDS011;59683;51.428;-1.994;2023-12-22T07:02:40;4.60;;;0.70;;
66663;SDS011;59683;51.428;-1.994;2023-12-22T07:07:37;5.53;;;1.73;;
66663;SDS011;59683;51.428;-1.994;2023-12-22T07:10:02;8.17;;;0.73;;
66663;SDS011;59683;51.428;-1.994;2023-12-22T07:12:28;5.53;;;0.77;;
66663;SDS011;59683;51.428;-1.994;2023-12-22T07:14:53;5.40;;;1.30;;
66663;SDS011;59683;51.428;-1.994;2023-12-22T07:17:19;3.40;;;0.90;;
66663;SDS011;59683;51.428;-1.994;2023-12-22T07:19:44;4.07;;;0.63;;
66663;SDS011;59683;51.428;-1.994;2023-12-22T07:22:10;4.57;;;0.60;;
66663;SDS011;59683;51.428;-1.994;2023-12-22T07:24:35;3.13;;;0.50;;
66663;SDS011;59683;51.428;-1.994;2023-12-22T07:27:00;4.50;;;0.57;;
66663;SDS011;59683;51.428;-1.994;2023-12-22T07:29:26;4.67;;;0.80;;
66663;SDS011;59683;51.428;-1.994;2023-12-22T07:31:51;5.17;;;1.37;;
66663;SDS011;59683;51.428;-1.994;2023-12-22T07:34:17;9.63;;;1.00;;
66663;SDS011;59683;51.428;-1.994;2023-12-22T07:36:43;5.20;;;0.80;;
66663;SDS011;59683;51.428;-1.994;2023-12-22T07:39:09;5.97;;;1.00;;
66663;SDS011;59683;51.428;-1.994;2023-12-22T07:41:35;7.70;;;1.93;;
66663;SDS011;59683;51.428;-1.994;2023-12-22T07:44:01;7.07;;;1.60;;
66663;SDS011;59683;51.428;-1.994;2023-12-22T07:46:26;9.93;;;1.30;;
66663;SDS011;59683;51.428;-1.994;2023-12-22T07:48:53;11.33;;;1.20;;
66663;SDS011;59683;51.428;-1.994;2023-12-22T07:51:19;10.27;;;2.20;;
66663;SDS011;59683;51.428;-1.994;2023-12-22T07:53:45;10.23;;;1.60;;
66663;SDS011;59683;51.428;-1.994;2023-12-22T07:56:10;11.70;;;1.97;;
66663;SDS011;59683;51.428;-1.994;2023-12-22T07:58:36;12.33;;;1.77;;
66663;SDS011;59683;51.428;-1.994;2023-12-22T08:01:02;11.23;;;1.93;;
66663;SDS011;59683;51.428;-1.994;2023-12-22T08:03:28;11.70;;;1.60;;
66663;SDS011;59683;51.428;-1.994;2023-12-22T08:05:53;9.37;;;1.10;;
66663;SDS011;59683;51.428;-1.994;2023-12-22T08:08:19;10.30;;;2.27;;
66663;SDS011;59683;51.428;-1.994;2023-12-22T08:10:44;15.23;;;2.23;;
66663;SDS011;59683;51.428;-1.994;2023-12-22T08:13:10;11.67;;;2.53;;
66663;SDS011;59683;51.428;-1.994;2023-12-22T08:15:35;13.40;;;2.13;;
66663;SDS011;59683;51.428;-1.994;2023-12-22T08:18:00;15.80;;;2.27;;
66663;SDS011;59683;51.428;-1.994;2023-12-22T08:20:26;11.27;;;2.60;;
66663;SDS011;59683;51.428;-1.994;2023-12-22T08:22:51;9.53;;;1.43;;
66663;SDS011;59683;51.428;-1.994;2023-12-22T08:25:16;15.73;;;2.10;;
66663;SDS011;59683;51.428;-1.994;2023-12-22T08:27:45;12.20;;;2.40;;
66663;SDS011;59683;51.428;-1.994;2023-12-22T08:30:11;11.77;;;3.03;;
66663;SDS011;59683;51.428;-1.994;2023-12-22T08:32:37;10.77;;;2.00;;
66663;SDS011;59683;51.428;-1.994;2023-12-22T08:35:03;10.10;;;1.60;;
66663;SDS011;59683;51.428;-1.994;2023-12-22T08:37:29;18.83;;;2.43;;
66663;SDS011;59683;51.428;-1.994;2023-12-22T08:39:55;16.77;;;2.07;;
66663;SDS011;59683;51.428;-1.994;2023-12-22T08:42:20;13.87;;;2.37;;
66663;SDS011;59683;51.428;-1.994;2023-12-22T08:44:47;13.93;;;2.20;;
66663;SDS011;59683;51.428;-1.994;2023-12-22T08:47:12;11.77;;;2.23;;
66663;SDS011;59683;51.428;-1.994;2023-12-22T08:49:38;13.07;;;1.73;;
66663;SDS011;59683;51.428;-1.994;2023-12-22T08:52:03;13.63;;;2.07;;
66663;SDS011;59683;51.428;-1.994;2023-12-22T08:54:29;13.97;;;2.33;;
66663;SDS011;59683;51.428;-1.994;2023-12-22T08:56:55;13.63;;;2.47;;
66663;SDS011;59683;51.428;-1.994;2023-12-22T08:59:20;12.50;;;2.17;;
66663;SDS011;59683;51.428;-1.994;2023-12-22T09:01:46;17.20;;;2.53;;
66663;SDS011;59683;51.428;-1.994;2023-12-22T09:04:11;16.63;;;2.57;;
66663;SDS011;59683;51.428;-1.994;2023-12-22T09:06:37;18.83;;;2.80;;
66663;SDS011;59683;51.428;-1.994;2023-12-22T09:09:03;15.90;;;1.97;;
66663;SDS011;59683;51.428;-1.994;2023-12-22T09:11:29;12.17;;;2.33;;
66663;SDS011;59683;51.428;-1.994;2023-12-22T09:13:55;9.53;;;1.43;;
66663;SDS011;59683;51.428;-1.994;2023-12-22T09:16:21;17.60;;;3.17;;
66663;SDS011;59683;51.428;-1.994;2023-12-22T09:18:47;17.97;;;2.20;;
66663;SDS011;59683;51.428;-1.994;2023-12-22T09:21:12;12.27;;;2.00;;
66663;SDS011;59683;51.428;-1.994;2023-12-22T09:23:37;14.73;;;2.23;;
66663;SDS011;59683;51.428;-1.994;2023-12-22T09:26:03;12.57;;;2.20;;
66663;SDS011;59683;51.428;-1.994;2023-12-22T09:28:29;15.13;;;2.80;;
66663;SDS011;59683;51.428;-1.994;2023-12-22T09:30:55;10.77;;;2.10;;
66663;SDS011;59683;51.428;-1.994;2023-12-22T09:33:20;11.43;;;2.27;;
66663;SDS011;59683;51.428;-1.994;2023-12-22T09:35:47;16.77;;;2.23;;
66663;SDS011;59683;51.428;-1.994;2023-12-22T09:38:13;10.07;;;2.07;;
66663;SDS011;59683;51.428;-1.994;2023-12-22T09:40:38;18.57;;;3.07;;
66663;SDS011;59683;51.428;-1.994;2023-12-22T09:43:04;12.27;;;1.73;;
66663;SDS011;59683;51.428;-1.994;2023-12-22T09:45:32;12.37;;;2.33;;
66663;SDS011;59683;51.428;-1.994;2023-12-22T09:47:58;13.30;;;2.73;;
66663;SDS011;59683;51.428;-1.994;2023-12-22T09:50:25;11.80;;;2.37;;
66663;SDS011;59683;51.428;-1.994;2023-12-22T09:52:54;16.10;;;2.33;;
66663;SDS011;59683;51.428;-1.994;2023-12-22T09:55:22;14.40;;;1.73;;
66663;SDS011;59683;51.428;-1.994;2023-12-22T09:57:49;9.00;;;1.77;;
66663;SDS011;59683;51.428;-1.994;2023-12-22T10:00:15;13.10;;;2.33;;
66663;SDS011;59683;51.428;-1.994;2023-12-22T10:02:41;7.43;;;1.30;;
66663;SDS011;59683;51.428;-1.994;2023-12-22T10:05:08;13.77;;;2.07;;
66663;SDS011;59683;51.428;-1.994;2023-12-22T10:07:35;13.60;;;3.43;;
66663;SDS011;59683;51.428;-1.994;2023-12-22T10:10:01;11.50;;;1.70;;
66663;SDS011;59683;51.428;-1.994;2023-12-22T10:12:29;9.53;;;1.87;;
66663;SDS011;59683;51.428;-1.994;2023-12-22T10:14:56;10.10;;;1.60;;
66663;SDS011;59683;51.428;-1.994;2023-12-22T10:17:21;12.73;;;2.20;;
66663;SDS011;59683;51.428;-1.994;2023-12-22T10:19:47;12.80;;;1.67;;
66663;SDS011;59683;51.428;-1.994;2023-12-22T10:22:13;8.93;;;1.80;;
66663;SDS011;59683;51.428;-1.994;2023-12-22T10:24:39;11.13;;;2.30;;
66663;SDS011;59683;51.428;-1.994;2023-12-22T10:27:09;18.03;;;2.63;;
66663;SDS011;59683;51.428;-1.994;2023-12-22T10:29:35;10.93;;;2.27;;
66663;SDS011;59683;51.428;-1.994;2023-12-22T10:32:01;10.70;;;1.50;;
66663;SDS011;59683;51.428;-1.994;2023-12-22T10:34:27;11.63;;;2.17;;
66663;SDS011;59683;51.428;-1.994;2023-12-22T10:36:53;7.33;;;1.50;;
66663;SDS011;59683;51.428;-1.994;2023-12-22T10:39:18;11.67;;;2.40;;
66663;SDS011;59683;51.428;-1.994;2023-12-22T10:41:43;8.60;;;1.20;;
66663;SDS011;59683;51.428;-1.994;2023-12-22T10:44:09;11.17;;;2.27;;
66663;SDS011;59683;51.428;-1.994;2023-12-22T10:46:35;13.70;;;1.90;;
66663;SDS011;59683;51.428;-1.994;2023-12-22T10:49:01;11.17;;;1.43;;
66663;SDS011;59683;51.428;-1.994;2023-12-22T10:51:28;9.13;;;1.37;;
66663;SDS011;59683;51.428;-1.994;2023-12-22T10:53:57;18.77;;;2.30;;
66663;SDS011;59683;51.428;-1.994;2023-12-22T10:56:23;6.93;;;1.30;;
66663;SDS011;59683;51.428;-1.994;2023-12-22T10:58:49;11.60;;;1.80;;
66663;SDS011;59683;51.428;-1.994;2023-12-22T11:01:17;12.37;;;1.40;;
66663;SDS011;59683;51.428;-1.994;2023-12-22T11:03:44;12.73;;;3.27;;
66663;SDS011;59683;51.428;-1.994;2023-12-22T11:06:10;10.17;;;1.87;;
66663;SDS011;59683;51.428;-1.994;2023-12-22T11:08:39;10.77;;;1.48;;
66663;SDS011;59683;51.428;-1.994;2023-12-22T11:11:16;11.67;;;2.17;;
66663;SDS011;59683;51.428;-1.994;2023-12-22T11:13:46;6.40;;;1.67;;
66663;SDS011;59683;51.428;-1.994;2023-12-22T11:16:12;12.83;;;2.17;;
66663;SDS011;59683;51.428;-1.994;2023-12-22T11:18:40;14.07;;;1.77;;
66663;SDS011;59683;51.428;-1.994;2023-12-22T11:21:06;9.80;;;1.70;;
66663;SDS011;59683;51.428;-1.994;2023-12-22T11:23:36;10.10;;;2.43;;
66663;SDS011;59683;51.428;-1.994;2023-12-22T11:26:03;13.23;;;2.33;;
66663;SDS011;59683;51.428;-1.994;2023-12-22T11:28:31;13.63;;;1.97;;
66663;SDS011;59683;51.428;-1.994;2023-12-22T11:30:58;12.80;;;2.20;;
66663;SDS011;59683;51.428;-1.994;2023-12-22T11:33:25;11.77;;;2.10;;
66663;SDS011;59683;51.428;-1.994;2023-12-22T11:35:52;7.63;;;1.43;;
66663;SDS011;59683;51.428;-1.994;2023-12-22T11:38:20;12.47;;;1.93;;
66663;SDS011;59683;51.428;-1.994;2023-12-22T11:40:46;12.80;;;2.33;;
66663;SDS011;59683;51.428;-1.994;2023-12-22T11:43:14;6.90;;;0.93;;
66663;SDS011;59683;51.428;-1.994;2023-12-22T11:45:42;16.90;;;2.17;;
66663;SDS011;59683;51.428;-1.994;2023-12-22T11:48:08;11.83;;;1.70;;
66663;SDS011;59683;51.428;-1.994;2023-12-22T11:50:34;13.70;;;2.33;;
66663;SDS011;59683;51.428;-1.994;2023-12-22T11:56:01;9.40;;;1.90;;
66663;SDS011;59683;51.428;-1.994;2023-12-22T11:58:47;12.57;;;1.87;;
66663;SDS011;59683;51.428;-1.994;2023-12-22T12:01:17;10.97;;;1.87;;
66663;SDS011;59683;51.428;-1.994;2023-12-22T12:03:48;12.23;;;1.50;;
66663;SDS011;59683;51.428;-1.994;2023-12-22T12:08:51;7.43;;;1.43;;
66663;SDS011;59683;51.428;-1.994;2023-12-22T12:11:18;12.27;;;1.73;;
66663;SDS011;59683;51.428;-1.994;2023-12-22T12:13:46;11.17;;;1.67;;
66663;SDS011;59683;51.428;-1.994;2023-12-22T12:16:13;11.67;;;2.03;;
66663;SDS011;59683;51.428;-1.994;2023-12-22T12:18:39;12.33;;;2.63;;
66663;SDS011;59683;51.428;-1.994;2023-12-22T12:21:06;13.67;;;2.50;;
66663;SDS011;59683;51.428;-1.994;2023-12-22T12:23:33;13.93;;;2.60;;
66663;SDS011;59683;51.428;-1.994;2023-12-22T12:25:59;15.33;;;1.73;;
66663;SDS011;59683;51.428;-1.994;2023-12-22T12:28:25;10.70;;;1.63;;
66663;SDS011;59683;51.428;-1.994;2023-12-22T12:30:56;10.00;;;1.70;;
66663;SDS011;59683;51.428;-1.994;2023-12-22T12:33:27;15.10;;;2.07;;
66663;SDS011;59683;51.428;-1.994;2023-12-22T12:35:54;17.07;;;3.00;;
66663;SDS011;59683;51.428;-1.994;2023-12-22T12:38:21;12.87;;;2.37;;
66663;SDS011;59683;51.428;-1.994;2023-12-22T12:40:53;15.13;;;2.90;;
66663;SDS011;59683;51.428;-1.994;2023-12-22T12:43:21;9.73;;;2.20;;
66663;SDS011;59683;51.428;-1.994;2023-12-22T12:45:47;9.93;;;1.70;;
66663;SDS011;59683;51.428;-1.994;2023-12-22T12:48:13;9.63;;;1.53;;
66663;SDS011;59683;51.428;-1.994;2023-12-22T12:50:42;11.63;;;2.10;;
66663;SDS011;59683;51.428;-1.994;2023-12-22T12:53:07;12.13;;;2.10;;
66663;SDS011;59683;51.428;-1.994;2023-12-22T12:55:33;14.47;;;2.63;;
66663;SDS011;59683;51.428;-1.994;2023-12-22T12:57:58;16.73;;;2.03;;
66663;SDS011;59683;51.428;-1.994;2023-12-22T13:00:24;13.50;;;3.00;;
66663;SDS011;59683;51.428;-1.994;2023-12-22T13:02:50;10.30;;;1.53;;
66663;SDS011;59683;51.428;-1.994;2023-12-22T13:05:20;12.50;;;2.50;;
66663;SDS011;59683;51.428;-1.994;2023-12-22T13:07:48;17.13;;;2.27;;
66663;SDS011;59683;51.428;-1.994;2023-12-22T13:10:23;9.37;;;1.40;;
66663;SDS011;59683;51.428;-1.994;2023-12-22T13:12:52;6.90;;;1.50;;
66663;SDS011;59683;51.428;-1.994;2023-12-22T13:15:19;13.05;;;2.47;;
66663;SDS011;59683;51.428;-1.994;2023-12-22T13:17:46;6.10;;;1.30;;
66663;SDS011;59683;51.428;-1.994;2023-12-22T13:20:11;13.30;;;1.77;;
66663;SDS011;59683;51.428;-1.994;2023-12-22T13:22:37;12.10;;;1.60;;
66663;SDS011;59683;51.428;-1.994;2023-12-22T13:25:03;9.07;;;1.50;;
66663;SDS011;59683;51.428;-1.994;2023-12-22T13:27:28;10.30;;;1.77;;
66663;SDS011;59683;51.428;-1.994;2023-12-22T13:29:54;14.23;;;1.50;;
66663;SDS011;59683;51.428;-1.994;2023-12-22T13:32:20;12.00;;;1.97;;
66663;SDS011;59683;51.428;-1.994;2023-12-22T13:37:16;11.87;;;1.77;;
66663;SDS011;59683;51.428;-1.994;2023-12-22T13:39:41;9.70;;;1.50;;
66663;SDS011;59683;51.428;-1.994;2023-12-22T13:42:13;11.30;;;1.13;;
66663;SDS011;59683;51.428;-1.994;2023-12-22T13:44:43;6.53;;;1.57;;
66663;SDS011;59683;51.428;-1.994;2023-12-22T13:47:11;9.20;;;1.73;;
66663;SDS011;59683;51.428;-1.994;2023-12-22T13:49:38;8.40;;;1.77;;
66663;SDS011;59683;51.428;-1.994;2023-12-22T13:52:03;12.83;;;1.67;;
66663;SDS011;59683;51.428;-1.994;2023-12-22T13:54:32;11.77;;;1.73;;
66663;SDS011;59683;51.428;-1.994;2023-12-22T13:56:59;6.80;;;1.30;;
66663;SDS011;59683;51.428;-1.994;2023-12-22T13:59:33;9.97;;;1.40;;
66663;SDS011;59683;51.428;-1.994;2023-12-22T14:01:59;10.27;;;1.90;;
66663;SDS011;59683;51.428;-1.994;2023-12-22T14:04:25;9.13;;;1.57;;
66663;SDS011;59683;51.428;-1.994;2023-12-22T14:06:51;11.63;;;2.17;;
66663;SDS011;59683;51.428;-1.994;2023-12-22T14:09:17;15.67;;;1.77;;
66663;SDS011;59683;51.428;-1.994;2023-12-22T14:11:46;16.23;;;2.40;;
66663;SDS011;59683;51.428;-1.994;2023-12-22T14:14:12;10.13;;;2.07;;
66663;SDS011;59683;51.428;-1.994;2023-12-22T14:16:38;11.47;;;2.70;;
66663;SDS011;59683;51.428;-1.994;2023-12-22T14:19:04;5.97;;;2.40;;
66663;SDS011;59683;51.428;-1.994;2023-12-22T14:21:29;11.13;;;2.57;;
66663;SDS011;59683;51.428;-1.994;2023-12-22T14:23:55;10.80;;;3.60;;
66663;SDS011;59683;51.428;-1.994;2023-12-22T14:26:20;9.57;;;1.63;;
66663;SDS011;59683;51.428;-1.994;2023-12-22T14:28:45;12.30;;;2.70;;
66663;SDS011;59683;51.428;-1.994;2023-12-22T14:31:15;10.20;;;1.58;;
66663;SDS011;59683;51.428;-1.994;2023-12-22T14:33:41;10.77;;;1.77;;
66663;SDS011;59683;51.428;-1.994;2023-12-22T14:36:06;8.33;;;1.47;;